createdAt,value
2022-12-19T00:02:12.241Z,4.62
2022-12-19T00:08:17.961Z,4.55
2022-12-19T00:14:21.416Z,4.67
2022-12-19T00:20:23.370Z,4.50
2022-12-19T00:26:30.451Z,4.56
2022-12-19T00:32:32.561Z,4.47
2022-12-19T00:38:35.232Z,4.38
2022-12-19T00:44:39.750Z,4.40
2022-12-19T00:50:41.869Z,4.38
2022-12-19T00:56:43.823Z,4.38
2022-12-19T01:02:46.162Z,4.40
2022-12-19T01:08:49.203Z,4.10
2022-12-19T01:14:54.299Z,4.12
2022-12-19T01:21:01.156Z,4.33
2022-12-19T01:27:03.575Z,4.32
2022-12-19T01:33:12.566Z,3.96
2022-12-19T01:39:14.581Z,3.76
2022-12-19T01:45:16.453Z,3.61
2022-12-19T01:51:24.789Z,3.67
2022-12-19T01:57:27.251Z,3.82
2022-12-19T02:03:32.387Z,3.79
2022-12-19T02:09:36.219Z,3.63
2022-12-19T02:16:30.062Z,3.53
2022-12-19T02:22:51.629Z,3.61
2022-12-19T02:29:18.047Z,3.52
2022-12-19T02:35:37.750Z,3.52
2022-12-19T02:41:47.731Z,3.41
2022-12-19T02:48:04.508Z,3.50
2022-12-19T02:54:07.465Z,3.60
2022-12-19T03:00:16.318Z,3.35
2022-12-19T03:06:38.685Z,2.93
2022-12-19T03:12:54.386Z,2.97
2022-12-19T03:18:58.425Z,2.92
2022-12-19T03:25:08.513Z,3.01
2022-12-19T03:31:13.083Z,2.82
2022-12-19T03:37:19.355Z,2.86
2022-12-19T03:43:24.457Z,2.82
2022-12-19T03:49:28.029Z,2.69
2022-12-19T03:55:45.156Z,2.83
2022-12-19T04:01:48.439Z,2.67
2022-12-19T04:07:54.324Z,2.70
2022-12-19T04:14:02.557Z,2.64
2022-12-19T04:20:10.832Z,2.35
2022-12-19T04:26:15.492Z,2.30
2022-12-19T04:32:19.403Z,2.18
2022-12-19T04:38:22.535Z,2.32
2022-12-19T04:44:24.898Z,2.54
2022-12-19T04:50:27.605Z,2.46
2022-12-19T04:56:29.587Z,2.53
2022-12-19T05:02:33.333Z,2.45
2022-12-19T05:08:37.376Z,2.42
2022-12-19T05:14:39.335Z,2.30
2022-12-19T05:20:41.301Z,2.16
2022-12-19T05:26:44.356Z,2.43
2022-12-19T05:32:46.372Z,2.33
2022-12-19T05:38:51.411Z,2.05
2022-12-19T05:44:53.419Z,2.17
2022-12-19T05:50:55.342Z,2.34
2022-12-19T05:57:00.725Z,2.44
2022-12-19T06:03:06.117Z,2.65
2022-12-19T06:09:09.063Z,2.33
2022-12-19T06:15:12.617Z,2.40
2022-12-19T06:21:19.138Z,2.55
2022-12-19T06:27:21.108Z,2.64
2022-12-19T06:33:26.544Z,2.36
2022-12-19T06:39:29.585Z,2.68
2022-12-19T06:45:33.193Z,2.74
2022-12-19T06:51:36.636Z,2.86
2022-12-19T06:57:46.150Z,3.01
2022-12-19T07:03:49.556Z,3.13
2022-12-19T07:09:51.684Z,3.11
2022-12-19T07:16:01.308Z,3.16
2022-12-19T07:22:04.341Z,3.28
2022-12-19T07:28:10.813Z,3.21
2022-12-19T07:34:12.920Z,3.43
2022-12-19T07:40:15.220Z,3.40
2022-12-19T07:46:17.427Z,3.47
2022-12-19T07:52:19.497Z,3.61
2022-12-19T07:58:21.600Z,3.34
2022-12-19T08:04:28.753Z,3.59
2022-12-19T08:10:32.048Z,3.58
2022-12-19T08:16:49.358Z,3.59
2022-12-19T08:23:02.551Z,3.68
2022-12-19T08:29:12.363Z,3.56
2022-12-19T08:35:18.139Z,3.70
2022-12-19T08:41:21.786Z,3.60
2022-12-19T08:47:26.670Z,3.56
2022-12-19T08:53:31.475Z,3.53
2022-12-19T08:59:34.053Z,3.55
2022-12-19T09:06:03.259Z,3.62
2022-12-19T09:12:00.527Z,3.59
2022-12-19T09:18:02.588Z,3.97
2022-12-19T09:24:07.838Z,4.13
2022-12-19T09:30:13.483Z,4.21
2022-12-19T09:36:19.859Z,4.03
2022-12-19T09:42:56.732Z,4.08
2022-12-19T09:49:05.017Z,4.31
2022-12-19T09:55:17.226Z,4.30
2022-12-19T10:01:40.588Z,4.10
2022-12-19T10:08:07.231Z,4.23
2022-12-19T10:14:25.153Z,4.19
2022-12-19T10:20:45.895Z,4.24
2022-12-19T10:26:52.597Z,4.12
2022-12-19T10:33:19.871Z,3.91
2022-12-19T10:39:55.387Z,4.36
2022-12-19T10:46:07.977Z,4.43
2022-12-19T10:52:12.193Z,4.34
2022-12-19T10:58:33.846Z,4.39
2022-12-19T11:04:36.826Z,3.93
2022-12-19T11:12:37.146Z,3.99
2022-12-19T11:22:04.976Z,3.71
2022-12-19T11:30:08.859Z,4.15
2022-12-19T11:37:30.492Z,4.15
2022-12-19T11:44:04.608Z,4.15
2022-12-19T11:50:30.098Z,4.60
2022-12-19T11:56:32.487Z,4.25
2022-12-19T12:03:27.171Z,4.34
2022-12-19T12:15:19.957Z,4.29
2022-12-19T12:28:42.780Z,4.30
2022-12-19T12:30:18.147Z,4.09
2022-12-19T12:31:30.804Z,3.96
2022-12-19T12:38:10.852Z,4.08
2022-12-19T12:43:21.793Z,4.30
2022-12-19T12:49:45.924Z,4.34
2022-12-19T12:55:50.433Z,4.13
2022-12-19T13:02:17.661Z,3.93
2022-12-19T13:08:32.901Z,4.18
2022-12-19T13:14:36.219Z,4.05
2022-12-19T13:20:45.460Z,4.04
2022-12-19T13:26:51.267Z,4.05
2022-12-19T13:32:55.932Z,4.28
2022-12-19T13:39:55.542Z,4.04
2022-12-19T13:45:27.724Z,3.91
2022-12-19T13:51:57.192Z,3.64
2022-12-19T13:58:07.312Z,3.72
2022-12-19T14:04:15.600Z,3.72
2022-12-19T14:11:39.470Z,3.53
2022-12-19T14:17:18.967Z,3.27
2022-12-19T14:23:36.995Z,3.18
2022-12-19T14:30:30.090Z,3.04
2022-12-19T14:36:34.926Z,3.12
2022-12-19T14:43:56.903Z,3.23
2022-12-19T14:54:09.466Z,2.87
2022-12-19T14:56:29.916Z,2.91
2022-12-19T15:02:33.360Z,2.92
2022-12-19T15:09:17.852Z,2.90
2022-12-19T15:15:18.715Z,3.14
2022-12-19T15:21:26.455Z,3.12
2022-12-19T15:27:30.985Z,3.03
2022-12-19T15:33:33.570Z,3.05
2022-12-19T15:39:35.671Z,3.17
2022-12-19T15:45:38.009Z,3.26
2022-12-19T15:51:43.281Z,3.07
2022-12-19T15:57:49.368Z,3.26
2022-12-19T16:03:51.718Z,3.02
2022-12-19T16:09:56.729Z,2.86
2022-12-19T16:15:59.222Z,2.45
2022-12-19T16:22:05.020Z,2.38
2022-12-19T16:28:14.737Z,2.56
2022-12-19T16:34:23.607Z,2.65
2022-12-19T16:40:27.061Z,2.58
2022-12-19T16:46:34.647Z,2.68
2022-12-19T16:52:42.818Z,2.87
2022-12-19T16:58:47.394Z,2.47
2022-12-19T17:04:54.358Z,2.42
2022-12-19T17:10:58.785Z,2.45
2022-12-19T17:17:01.028Z,2.57
2022-12-19T17:23:03.715Z,2.66
2022-12-19T17:29:06.720Z,2.51
2022-12-19T17:35:27.311Z,2.56
2022-12-19T17:41:31.350Z,2.61
2022-12-19T17:47:34.577Z,2.63
2022-12-19T17:53:37.532Z,2.58
2022-12-19T17:59:39.560Z,2.71
2022-12-19T18:05:42.648Z,2.69
2022-12-19T18:11:44.684Z,2.71
2022-12-19T18:17:51.256Z,2.67
